sensor_id;sensor_type;location;lat;lon;timestamp;pressure;altitude;pressure_sealevel;temperature;humidity
64668;BME280;51077;42.716;23.344;2023-08-20T00:00:00;95623.63;;;23.54;47.85
64668;BME280;51077;42.716;23.344;2023-08-20T00:02:27;95624.38;;;23.54;47.85
64668;BME280;51077;42.716;23.344;2023-08-20T00:04:57;95620.72;;;23.52;47.79
64668;BME280;51077;42.716;23.344;2023-08-20T00:07:22;95626.59;;;23.46;48.14
64668;BME280;51077;42.716;23.344;2023-08-20T00:09:48;95620.97;;;23.46;48.24
64668;BME280;51077;42.716;23.344;2023-08-20T00:12:13;95625.13;;;23.45;48.16
64668;BME280;51077;42.716;23.344;2023-08-20T00:14:59;95612.59;;;23.46;47.81
64668;BME280;51077;42.716;23.344;2023-08-20T00:17:34;95620.84;;;23.44;48.29
64668;BME280;51077;42.716;23.344;2023-08-20T00:20:00;95627.19;;;23.45;48.26
64668;BME280;51077;42.716;23.344;2023-08-20T00:22:26;95628.53;;;23.44;48.21
64668;BME280;51077;42.716;23.344;2023-08-20T00:24:53;95620.72;;;23.42;48.38
64668;BME280;51077;42.716;23.344;2023-08-20T00:27:19;95630.44;;;23.41;48.37
64668;BME280;51077;42.716;23.344;2023-08-20T00:29:44;95626.91;;;23.41;48.46
64668;BME280;51077;42.716;23.344;2023-08-20T00:32:09;95629.56;;;23.39;48.42
64668;BME280;51077;42.716;23.344;2023-08-20T00:34:35;95618.94;;;23.37;48.45
64668;BME280;51077;42.716;23.344;2023-08-20T00:37:01;95625.72;;;23.34;48.57
64668;BME280;51077;42.716;23.344;2023-08-20T00:39:28;95625.56;;;23.32;48.45
64668;BME280;51077;42.716;23.344;2023-08-20T00:41:53;95619.84;;;23.30;48.68
64668;BME280;51077;42.716;23.344;2023-08-20T00:44:18;95623.81;;;23.27;48.72
64668;BME280;51077;42.716;23.344;2023-08-20T00:46:44;95625.13;;;23.26;48.75
64668;BME280;51077;42.716;23.344;2023-08-20T00:49:10;95614.66;;;23.26;48.48
64668;BME280;51077;42.716;23.344;2023-08-20T00:51:35;95621.59;;;23.25;48.61
64668;BME280;51077;42.716;23.344;2023-08-20T00:54:02;95629.09;;;23.23;48.75
64668;BME280;51077;42.716;23.344;2023-08-20T00:56:28;95627.03;;;23.23;48.80
64668;BME280;51077;42.716;23.344;2023-08-20T00:58:54;95624.84;;;23.22;48.64
64668;BME280;51077;42.716;23.344;2023-08-20T01:01:21;95616.28;;;23.20;48.83
64668;BME280;51077;42.716;23.344;2023-08-20T01:03:46;95623.06;;;23.17;48.81
64668;BME280;51077;42.716;23.344;2023-08-20T01:09:05;95618.63;;;23.14;48.89
64668;BME280;51077;42.716;23.344;2023-08-20T01:11:37;95608.78;;;23.13;49.09
64668;BME280;51077;42.716;23.344;2023-08-20T01:14:14;95612.88;;;23.12;48.96
64668;BME280;51077;42.716;23.344;2023-08-20T01:16:40;95621.13;;;23.10;48.96
64668;BME280;51077;42.716;23.344;2023-08-20T01:19:10;95619.06;;;23.10;48.96
64668;BME280;51077;42.716;23.344;2023-08-20T01:24:43;95616.13;;;23.08;49.03
64668;BME280;51077;42.716;23.344;2023-08-20T01:27:28;95619.50;;;23.06;49.29
64668;BME280;51077;42.716;23.344;2023-08-20T01:29:57;95618.03;;;23.05;49.30
64668;BME280;51077;42.716;23.344;2023-08-20T01:32:23;95612.59;;;23.07;49.22
64668;BME280;51077;42.716;23.344;2023-08-20T01:34:49;95614.50;;;23.05;49.26
64668;BME280;51077;42.716;23.344;2023-08-20T01:37:14;95606.09;;;23.05;49.18
64668;BME280;51077;42.716;23.344;2023-08-20T01:39:40;95616.56;;;23.04;49.31
64668;BME280;51077;42.716;23.344;2023-08-20T01:42:05;95603.91;;;23.03;49.14
64668;BME280;51077;42.716;23.344;2023-08-20T01:44:31;95607.28;;;23.02;49.38
64668;BME280;51077;42.716;23.344;2023-08-20T01:46:57;95603.00;;;23.01;49.36
64668;BME280;51077;42.716;23.344;2023-08-20T01:49:23;95591.66;;;22.99;49.38
64668;BME280;51077;42.716;23.344;2023-08-20T01:51:48;95590.91;;;22.98;49.45
64668;BME280;51077;42.716;23.344;2023-08-20T01:54:13;95583.84;;;22.97;49.47
64668;BME280;51077;42.716;23.344;2023-08-20T01:56:39;95578.09;;;22.95;49.58
64668;BME280;51077;42.716;23.344;2023-08-20T01:59:05;95581.47;;;22.94;49.54
64668;BME280;51077;42.716;23.344;2023-08-20T02:01:30;95573.69;;;22.92;49.72
64668;BME280;51077;42.716;23.344;2023-08-20T02:03:56;95576.34;;;22.90;49.55
64668;BME280;51077;42.716;23.344;2023-08-20T02:06:21;95579.88;;;22.91;49.78
64668;BME280;51077;42.716;23.344;2023-08-20T02:08:46;95577.63;;;22.89;49.89
64668;BME280;51077;42.716;23.344;2023-08-20T02:11:12;95576.16;;;22.88;49.77
64668;BME280;51077;42.716;23.344;2023-08-20T02:13:38;95574.69;;;22.87;49.77
64668;BME280;51077;42.716;23.344;2023-08-20T02:16:04;95570.41;;;22.86;49.79
64668;BME280;51077;42.716;23.344;2023-08-20T02:18:30;95565.56;;;22.87;49.79
64668;BME280;51077;42.716;23.344;2023-08-20T02:20:56;95566.88;;;22.86;50.01
64668;BME280;51077;42.716;23.344;2023-08-20T02:23:22;95562.03;;;22.86;49.83
64668;BME280;51077;42.716;23.344;2023-08-20T02:25:48;95563.91;;;22.83;49.75
64668;BME280;51077;42.716;23.344;2023-08-20T02:28:13;95563.78;;;22.81;49.88
64668;BME280;51077;42.716;23.344;2023-08-20T02:30:44;95555.38;;;22.81;49.87
64668;BME280;51077;42.716;23.344;2023-08-20T02:33:10;95558.75;;;22.80;50.02
64668;BME280;51077;42.716;23.344;2023-08-20T02:35:39;95555.97;;;22.80;50.34
64668;BME280;51077;42.716;23.344;2023-08-20T02:38:06;95562.75;;;22.77;50.15
64668;BME280;51077;42.716;23.344;2023-08-20T02:40:31;95566.84;;;22.76;50.32
64668;BME280;51077;42.716;23.344;2023-08-20T02:42:57;95570.06;;;22.72;50.37
64668;BME280;51077;42.716;23.344;2023-08-20T02:45:22;95572.75;;;22.70;50.43
64668;BME280;51077;42.716;23.344;2023-08-20T02:47:48;95572.59;;;22.68;50.49
64668;BME280;51077;42.716;23.344;2023-08-20T02:50:14;95570.97;;;22.65;50.53
64668;BME280;51077;42.716;23.344;2023-08-20T02:52:42;95571.41;;;22.62;50.48
64668;BME280;51077;42.716;23.344;2023-08-20T02:55:08;95575.22;;;22.56;50.69
64668;BME280;51077;42.716;23.344;2023-08-20T02:57:33;95576.25;;;22.51;51.01
64668;BME280;51077;42.716;23.344;2023-08-20T02:59:59;95589.91;;;22.47;51.44
64668;BME280;51077;42.716;23.344;2023-08-20T03:02:24;95586.81;;;22.43;51.37
64668;BME280;51077;42.716;23.344;2023-08-20T03:04:49;95586.66;;;22.41;51.56
64668;BME280;51077;42.716;23.344;2023-08-20T03:07:15;95580.19;;;22.39;51.54
64668;BME280;51077;42.716;23.344;2023-08-20T03:09:40;95587.66;;;22.36;51.58
64668;BME280;51077;42.716;23.344;2023-08-20T03:12:06;95586.19;;;22.35;51.63
64668;BME280;51077;42.716;23.344;2023-08-20T03:14:32;95588.81;;;22.33;51.78
64668;BME280;51077;42.716;23.344;2023-08-20T03:16:57;95590.88;;;22.32;51.73
64668;BME280;51077;42.716;23.344;2023-08-20T03:19:22;95588.69;;;22.31;51.75
64668;BME280;51077;42.716;23.344;2023-08-20T03:21:48;95582.94;;;22.29;51.94
64668;BME280;51077;42.716;23.344;2023-08-20T03:24:13;95597.34;;;22.25;52.02
64668;BME280;51077;42.716;23.344;2023-08-20T03:26:38;95604.25;;;22.24;52.21
64668;BME280;51077;42.716;23.344;2023-08-20T03:29:04;95597.03;;;22.21;52.20
64668;BME280;51077;42.716;23.344;2023-08-20T03:31:29;95592.59;;;22.18;52.27
64668;BME280;51077;42.716;23.344;2023-08-20T03:33:55;95596.00;;;22.17;52.52
64668;BME280;51077;42.716;23.344;2023-08-20T03:36:20;95590.97;;;22.15;52.39
64668;BME280;51077;42.716;23.344;2023-08-20T03:38:46;95590.09;;;22.13;52.49
64668;BME280;51077;42.716;23.344;2023-08-20T03:41:11;95589.91;;;22.11;52.63
64668;BME280;51077;42.716;23.344;2023-08-20T03:43:37;95586.97;;;22.08;52.76
64668;BME280;51077;42.716;23.344;2023-08-20T03:46:02;95589.59;;;22.06;52.90
64668;BME280;51077;42.716;23.344;2023-08-20T03:48:28;95584.59;;;22.05;52.90
64668;BME280;51077;42.716;23.344;2023-08-20T03:50:53;95581.66;;;22.03;52.79
64668;BME280;51077;42.716;23.344;2023-08-20T03:53:19;95582.94;;;22.02;52.93
64668;BME280;51077;42.716;23.344;2023-08-20T03:55:50;95576.63;;;22.01;52.93
64668;BME280;51077;42.716;23.344;2023-08-20T03:58:16;95580.00;;;22.00;52.87
64668;BME280;51077;42.716;23.344;2023-08-20T04:00:42;95577.94;;;22.00;53.14
64668;BME280;51077;42.716;23.344;2023-08-20T04:03:08;95576.63;;;22.01;53.16
64668;BME280;51077;42.716;23.344;2023-08-20T04:05:37;95569.69;;;22.02;53.22
64668;BME280;51077;42.716;23.344;2023-08-20T04:08:04;95573.25;;;22.03;53.34
64668;BME280;51077;42.716;23.344;2023-08-20T04:10:30;95573.41;;;22.05;53.25
64668;BME280;51077;42.716;23.344;2023-08-20T04:12:56;95569.88;;;22.04;53.29
64668;BME280;51077;42.716;23.344;2023-08-20T04:15:21;95581.06;;;22.04;53.11
64668;BME280;51077;42.716;23.344;2023-08-20T04:17:47;95568.53;;;22.05;53.53
64668;BME280;51077;42.716;23.344;2023-08-20T04:20:14;95574.44;;;22.09;53.46
64668;BME280;51077;42.716;23.344;2023-08-20T04:22:39;95573.84;;;22.11;53.45
64668;BME280;51077;42.716;23.344;2023-08-20T04:25:06;95580.53;;;22.16;53.58
64668;BME280;51077;42.716;23.344;2023-08-20T04:27:32;95579.22;;;22.17;53.77
64668;BME280;51077;42.716;23.344;2023-08-20T04:29:57;95577.91;;;22.18;53.76
64668;BME280;51077;42.716;23.344;2023-08-20T04:32:23;95577.31;;;22.19;53.64
64668;BME280;51077;42.716;23.344;2023-08-20T04:34:48;95583.94;;;22.24;53.59
64668;BME280;51077;42.716;23.344;2023-08-20T04:37:18;95582.34;;;22.30;53.72
64668;BME280;51077;42.716;23.344;2023-08-20T04:39:45;95585.03;;;22.38;53.59
64668;BME280;51077;42.716;23.344;2023-08-20T04:47:17;95584.88;;;23.12;51.91
64668;BME280;51077;42.716;23.344;2023-08-20T04:49:43;95581.38;;;23.21;51.75
64668;BME280;51077;42.716;23.344;2023-08-20T04:52:08;95592.72;;;23.42;51.42
64668;BME280;51077;42.716;23.344;2023-08-20T04:54:34;95587.22;;;23.73;50.47
64668;BME280;51077;42.716;23.344;2023-08-20T04:56:59;95584.03;;;23.98;50.19
64668;BME280;51077;42.716;23.344;2023-08-20T04:59:24;95593.53;;;24.24;49.48
64668;BME280;51077;42.716;23.344;2023-08-20T05:01:51;95592.44;;;24.49;48.88
64668;BME280;51077;42.716;23.344;2023-08-20T05:04:17;95592.31;;;24.68;48.59
64668;BME280;51077;42.716;23.344;2023-08-20T05:06:42;95600.63;;;24.88;47.96
64668;BME280;51077;42.716;23.344;2023-08-20T05:09:07;95587.69;;;25.04;47.67
64668;BME280;51077;42.716;23.344;2023-08-20T05:11:33;95588.25;;;25.12;47.36
64668;BME280;51077;42.716;23.344;2023-08-20T05:13:59;95602.28;;;25.12;47.28
64668;BME280;51077;42.716;23.344;2023-08-20T05:16:25;95597.91;;;24.99;47.63
64668;BME280;51077;42.716;23.344;2023-08-20T05:18:50;95595.94;;;24.80;47.82
64668;BME280;51077;42.716;23.344;2023-08-20T05:21:16;95599.16;;;24.65;48.24
64668;BME280;51077;42.716;23.344;2023-08-20T05:23:41;95604.22;;;24.57;48.50
64668;BME280;51077;42.716;23.344;2023-08-20T05:26:07;95594.91;;;24.54;48.41
64668;BME280;51077;42.716;23.344;2023-08-20T05:28:33;95608.22;;;24.54;48.82
64668;BME280;51077;42.716;23.344;2023-08-20T05:30:58;95608.38;;;24.56;48.69
64668;BME280;51077;42.716;23.344;2023-08-20T05:33:24;95609.94;;;24.59;48.79
64668;BME280;51077;42.716;23.344;2023-08-20T05:35:50;95612.91;;;24.61;48.99
64668;BME280;51077;42.716;23.344;2023-08-20T05:38:16;95605.50;;;24.66;48.77
64668;BME280;51077;42.716;23.344;2023-08-20T05:40:42;95613.59;;;24.71;49.17
64668;BME280;51077;42.716;23.344;2023-08-20T05:43:08;95614.00;;;24.77;49.07
64668;BME280;51077;42.716;23.344;2023-08-20T05:45:33;95612.34;;;24.84;48.92
64668;BME280;51077;42.716;23.344;2023-08-20T05:47:59;95614.22;;;24.91;48.87
64668;BME280;51077;42.716;23.344;2023-08-20T05:50:24;95617.56;;;24.99;48.39
64668;BME280;51077;42.716;23.344;2023-08-20T05:52:50;95629.50;;;25.10;48.35
64668;BME280;51077;42.716;23.344;2023-08-20T05:55:15;95617.44;;;25.19;48.16
64668;BME280;51077;42.716;23.344;2023-08-20T05:57:41;95615.16;;;25.27;48.39
64668;BME280;51077;42.716;23.344;2023-08-20T06:00:08;95612.16;;;25.35;47.89
64668;BME280;51077;42.716;23.344;2023-08-20T06:02:34;95614.88;;;25.44;47.73
64668;BME280;51077;42.716;23.344;2023-08-20T06:04:59;95606.25;;;25.52;47.65
64668;BME280;51077;42.716;23.344;2023-08-20T06:07:25;95608.97;;;25.62;47.52
64668;BME280;51077;42.716;23.344;2023-08-20T06:09:50;95609.59;;;25.72;47.14
64668;BME280;51077;42.716;23.344;2023-08-20T06:12:16;95620.03;;;25.81;47.05
64668;BME280;51077;42.716;23.344;2023-08-20T06:14:42;95619.97;;;25.91;46.55
64668;BME280;51077;42.716;23.344;2023-08-20T06:17:08;95619.25;;;26.02;46.42
64668;BME280;51077;42.716;23.344;2023-08-20T06:19:33;95620.72;;;26.15;46.09
64668;BME280;51077;42.716;23.344;2023-08-20T06:21:59;95616.59;;;26.27;45.50
64668;BME280;51077;42.716;23.344;2023-08-20T06:24:25;95623.06;;;26.42;45.39
64668;BME280;51077;42.716;23.344;2023-08-20T06:26:51;95620.41;;;26.55;45.10
64668;BME280;51077;42.716;23.344;2023-08-20T06:29:17;95625.66;;;26.73;44.56
64668;BME280;51077;42.716;23.344;2023-08-20T06:31:43;95624.44;;;26.88;44.25
64668;BME280;51077;42.716;23.344;2023-08-20T06:34:08;95620.50;;;27.04;43.92
64668;BME280;51077;42.716;23.344;2023-08-20T06:36:35;95613.84;;;27.23;43.74
64668;BME280;51077;42.716;23.344;2023-08-20T06:39:01;95619.94;;;27.43;43.29
64668;BME280;51077;42.716;23.344;2023-08-20T06:41:26;95611.63;;;27.59;43.06
64668;BME280;51077;42.716;23.344;2023-08-20T06:43:52;95619.09;;;27.78;42.82
64668;BME280;51077;42.716;23.344;2023-08-20T06:46:17;95616.53;;;27.96;42.69
64668;BME280;51077;42.716;23.344;2023-08-20T06:48:43;95616.66;;;28.12;42.39
64668;BME280;51077;42.716;23.344;2023-08-20T06:51:12;95616.91;;;28.29;42.43
64668;BME280;51077;42.716;23.344;2023-08-20T06:53:38;95619.91;;;28.45;41.57
64668;BME280;51077;42.716;23.344;2023-08-20T06:56:04;95627.22;;;28.64;41.50
64668;BME280;51077;42.716;23.344;2023-08-20T06:58:29;95617.41;;;28.79;41.15
64668;BME280;51077;42.716;23.344;2023-08-20T07:00:55;95622.56;;;28.96;40.88
64668;BME280;51077;42.716;23.344;2023-08-20T07:03:20;95622.03;;;29.14;41.10
64668;BME280;51077;42.716;23.344;2023-08-20T07:05:45;95629.94;;;29.31;40.36
64668;BME280;51077;42.716;23.344;2023-08-20T07:08:11;95618.16;;;29.50;39.39
64668;BME280;51077;42.716;23.344;2023-08-20T07:10:36;95620.44;;;29.68;39.37
64668;BME280;51077;42.716;23.344;2023-08-20T07:13:02;95624.91;;;29.87;38.74
64668;BME280;51077;42.716;23.344;2023-08-20T07:15:27;95618.06;;;30.08;38.29
64668;BME280;51077;42.716;23.344;2023-08-20T07:17:52;95624.31;;;30.20;38.23
64668;BME280;51077;42.716;23.344;2023-08-20T07:20:18;95616.13;;;30.42;37.21
64668;BME280;51077;42.716;23.344;2023-08-20T07:22:43;95610.28;;;30.53;36.98
64668;BME280;51077;42.716;23.344;2023-08-20T07:25:09;95622.16;;;30.66;36.51
64668;BME280;51077;42.716;23.344;2023-08-20T07:27:34;95615.84;;;30.83;35.50
64668;BME280;51077;42.716;23.344;2023-08-20T07:29:59;95619.53;;;31.03;35.56
64668;BME280;51077;42.716;23.344;2023-08-20T07:32:25;95624.53;;;31.21;34.78
64668;BME280;51077;42.716;23.344;2023-08-20T07:34:50;95620.13;;;31.34;34.86
64668;BME280;51077;42.716;23.344;2023-08-20T07:37:16;95615.78;;;31.48;33.69
64668;BME280;51077;42.716;23.344;2023-08-20T07:39:41;95617.09;;;31.63;33.15
64668;BME280;51077;42.716;23.344;2023-08-20T07:42:07;95619.03;;;31.59;32.84
64668;BME280;51077;42.716;23.344;2023-08-20T07:44:32;95614.47;;;31.34;33.40
64668;BME280;51077;42.716;23.344;2023-08-20T07:46:58;95621.88;;;31.59;32.74
64668;BME280;51077;42.716;23.344;2023-08-20T07:49:23;95622.88;;;31.83;32.40
64668;BME280;51077;42.716;23.344;2023-08-20T07:51:49;95615.56;;;32.14;32.59
64668;BME280;51077;42.716;23.344;2023-08-20T07:54:17;95608.84;;;32.43;31.81
64668;BME280;51077;42.716;23.344;2023-08-20T07:56:42;95618.53;;;32.56;31.54
64668;BME280;51077;42.716;23.344;2023-08-20T07:59:08;95610.56;;;32.70;31.11
64668;BME280;51077;42.716;23.344;2023-08-20T08:01:33;95612.44;;;32.83;30.95
64668;BME280;51077;42.716;23.344;2023-08-20T08:03:58;95610.31;;;33.03;30.77
64668;BME280;51077;42.716;23.344;2023-08-20T08:06:24;95612.47;;;33.25;30.09
64668;BME280;51077;42.716;23.344;2023-08-20T08:08:49;95608.78;;;33.42;29.80
64668;BME280;51077;42.716;23.344;2023-08-20T08:11:15;95613.75;;;33.62;29.74
64668;BME280;51077;42.716;23.344;2023-08-20T08:13:40;95599.38;;;33.58;29.51
64668;BME280;51077;42.716;23.344;2023-08-20T08:16:05;95608.53;;;33.78;29.27
64668;BME280;51077;42.716;23.344;2023-08-20T08:18:31;95607.31;;;33.83;29.27
64668;BME280;51077;42.716;23.344;2023-08-20T08:20:56;95609.28;;;34.00;28.95
64668;BME280;51077;42.716;23.344;2023-08-20T08:23:22;95605.44;;;34.14;28.64
64668;BME280;51077;42.716;23.344;2023-08-20T08:25:47;95601.06;;;34.11;28.50
64668;BME280;51077;42.716;23.344;2023-08-20T08:28:13;95605.03;;;34.25;27.92
64668;BME280;51077;42.716;23.344;2023-08-20T08:30:39;95608.47;;;34.44;27.63
64668;BME280;51077;42.716;23.344;2023-08-20T08:33:05;95610.94;;;34.56;27.82
64668;BME280;51077;42.716;23.344;2023-08-20T08:35:31;95611.06;;;34.60;27.44
64668;BME280;51077;42.716;23.344;2023-08-20T08:37:56;95603.34;;;34.64;27.47
64668;BME280;51077;42.716;23.344;2023-08-20T08:40:24;95608.00;;;34.78;27.41
64668;BME280;51077;42.716;23.344;2023-08-20T08:42:50;95598.09;;;34.81;26.80
64668;BME280;51077;42.716;23.344;2023-08-20T08:45:18;95602.34;;;34.80;26.36
64668;BME280;51077;42.716;23.344;2023-08-20T08:47:45;95612.97;;;34.77;26.11
64668;BME280;51077;42.716;23.344;2023-08-20T08:50:10;95607.66;;;34.91;25.97
64668;BME280;51077;42.716;23.344;2023-08-20T08:52:37;95599.75;;;35.14;25.77
64668;BME280;51077;42.716;23.344;2023-08-20T08:55:04;95604.72;;;35.41;25.28
64668;BME280;51077;42.716;23.344;2023-08-20T08:57:30;95616.59;;;35.32;25.23
64668;BME280;51077;42.716;23.344;2023-08-20T08:59:56;95606.44;;;35.24;25.73
64668;BME280;51077;42.716;23.344;2023-08-20T09:02:21;95604.81;;;35.45;25.22
64668;BME280;51077;42.716;23.344;2023-08-20T09:04:48;95608.63;;;35.54;25.34
64668;BME280;51077;42.716;23.344;2023-08-20T09:07:14;95592.66;;;35.73;24.78
64668;BME280;51077;42.716;23.344;2023-08-20T09:09:44;95605.00;;;35.82;24.70
64668;BME280;51077;42.716;23.344;2023-08-20T09:12:18;95603.75;;;35.89;25.10
64668;BME280;51077;42.716;23.344;2023-08-20T09:14:51;95605.00;;;36.12;24.68
64668;BME280;51077;42.716;23.344;2023-08-20T09:17:18;95589.22;;;36.41;24.41
64668;BME280;51077;42.716;23.344;2023-08-20T09:19:45;95605.53;;;36.68;23.54
64668;BME280;51077;42.716;23.344;2023-08-20T09:22:12;95599.00;;;36.64;23.34
64668;BME280;51077;42.716;23.344;2023-08-20T09:24:46;95598.97;;;36.62;23.69
64668;BME280;51077;42.716;23.344;2023-08-20T09:27:12;95591.63;;;36.89;23.00
64668;BME280;51077;42.716;23.344;2023-08-20T09:34:40;95592.69;;;37.46;21.36
64668;BME280;51077;42.716;23.344;2023-08-20T09:37:10;95584.41;;;37.64;21.62
64668;BME280;51077;42.716;23.344;2023-08-20T09:39:36;95589.84;;;37.48;21.27
64668;BME280;51077;42.716;23.344;2023-08-20T09:42:02;95594.22;;;37.51;21.11
64668;BME280;51077;42.716;23.344;2023-08-20T09:44:32;95590.91;;;37.69;20.62
64668;BME280;51077;42.716;23.344;2023-08-20T09:46:59;95583.28;;;37.84;20.65
64668;BME280;51077;42.716;23.344;2023-08-20T09:49:29;95577.69;;;37.92;20.40
64668;BME280;51077;42.716;23.344;2023-08-20T09:51:56;95578.66;;;38.09;20.26
64668;BME280;51077;42.716;23.344;2023-08-20T09:54:29;95578.03;;;38.16;20.22
64668;BME280;51077;42.716;23.344;2023-08-20T09:56:58;95586.22;;;38.36;19.88
64668;BME280;51077;42.716;23.344;2023-08-20T09:59:26;95577.25;;;38.62;19.59
64668;BME280;51077;42.716;23.344;2023-08-20T10:01:52;95574.03;;;38.96;19.87
64668;BME280;51077;42.716;23.344;2023-08-20T10:04:19;95574.44;;;39.35;19.33
64668;BME280;51077;42.716;23.344;2023-08-20T10:06:46;95576.63;;;39.37;18.84
64668;BME280;51077;42.716;23.344;2023-08-20T10:09:11;95578.09;;;39.44;18.90
64668;BME280;51077;42.716;23.344;2023-08-20T10:11:39;95581.78;;;39.53;19.07
64668;BME280;51077;42.716;23.344;2023-08-20T10:14:05;95578.28;;;39.62;18.77
64668;BME280;51077;42.716;23.344;2023-08-20T10:16:33;95576.97;;;39.76;18.94
64668;BME280;51077;42.716;23.344;2023-08-20T10:19:02;95574.25;;;40.00;18.64
64668;BME280;51077;42.716;23.344;2023-08-20T10:21:28;95580.63;;;39.84;18.36
64668;BME280;51077;42.716;23.344;2023-08-20T10:23:53;95573.34;;;39.71;18.24
64668;BME280;51077;42.716;23.344;2023-08-20T10:26:20;95574.78;;;39.72;18.43
64668;BME280;51077;42.716;23.344;2023-08-20T10:28:47;95569.97;;;40.03;18.23
64668;BME280;51077;42.716;23.344;2023-08-20T10:31:13;95566.53;;;40.25;18.12
64668;BME280;51077;42.716;23.344;2023-08-20T10:36:07;95565.13;;;40.34;18.05
64668;BME280;51077;42.716;23.344;2023-08-20T10:38:37;95560.97;;;40.60;18.05
64668;BME280;51077;42.716;23.344;2023-08-20T10:41:06;95566.06;;;40.76;17.53
64668;BME280;51077;42.716;23.344;2023-08-20T10:43:39;95556.72;;;40.89;17.77
64668;BME280;51077;42.716;23.344;2023-08-20T10:48:38;95550.91;;;40.75;17.07
64668;BME280;51077;42.716;23.344;2023-08-20T10:53:36;95548.00;;;40.55;17.11
64668;BME280;51077;42.716;23.344;2023-08-20T10:56:13;95540.06;;;40.57;17.39
64668;BME280;51077;42.716;23.344;2023-08-20T10:58:46;95538.00;;;40.92;16.75
64668;BME280;51077;42.716;23.344;2023-08-20T11:03:45;95535.19;;;41.23;16.65
64668;BME280;51077;42.716;23.344;2023-08-20T11:06:11;95526.63;;;41.50;16.49
64668;BME280;51077;42.716;23.344;2023-08-20T11:08:37;95531.66;;;41.39;16.31
64668;BME280;51077;42.716;23.344;2023-08-20T11:11:03;95530.16;;;41.09;16.54
64668;BME280;51077;42.716;23.344;2023-08-20T11:13:31;95528.00;;;41.30;16.46
64668;BME280;51077;42.716;23.344;2023-08-20T11:15:57;95527.25;;;41.05;16.66
64668;BME280;51077;42.716;23.344;2023-08-20T11:18:24;95528.03;;;41.36;16.68
64668;BME280;51077;42.716;23.344;2023-08-20T11:20:50;95526.59;;;41.56;16.46
64668;BME280;51077;42.716;23.344;2023-08-20T11:23:15;95522.25;;;41.30;16.36
64668;BME280;51077;42.716;23.344;2023-08-20T11:25:42;95515.09;;;41.54;16.59
64668;BME280;51077;42.716;23.344;2023-08-20T11:28:08;95524.44;;;41.50;16.57
64668;BME280;51077;42.716;23.344;2023-08-20T11:30:34;95517.22;;;41.49;17.06
64668;BME280;51077;42.716;23.344;2023-08-20T11:33:00;95517.97;;;41.84;16.72
64668;BME280;51077;42.716;23.344;2023-08-20T11:35:26;95516.50;;;41.61;16.68
64668;BME280;51077;42.716;23.344;2023-08-20T11:37:55;95506.41;;;41.72;16.53
64668;BME280;51077;42.716;23.344;2023-08-20T11:40:21;95509.31;;;41.80;16.35
64668;BME280;51077;42.716;23.344;2023-08-20T11:42:47;95504.28;;;41.40;17.09
64668;BME280;51077;42.716;23.344;2023-08-20T11:45:13;95498.50;;;41.22;17.25
64668;BME280;51077;42.716;23.344;2023-08-20T11:47:40;95505.00;;;41.67;16.62
64668;BME280;51077;42.716;23.344;2023-08-20T11:50:06;95507.88;;;41.53;16.93
64668;BME280;51077;42.716;23.344;2023-08-20T11:52:32;95507.88;;;41.20;17.08
64668;BME280;51077;42.716;23.344;2023-08-20T11:54:59;95493.47;;;41.24;17.03
64668;BME280;51077;42.716;23.344;2023-08-20T11:57:25;95492.03;;;41.19;17.31
64668;BME280;51077;42.716;23.344;2023-08-20T11:59:50;95492.03;;;41.54;17.18
64668;BME280;51077;42.716;23.344;2023-08-20T12:02:27;95496.31;;;41.69;17.11
64668;BME280;51077;42.716;23.344;2023-08-20T12:04:56;95489.88;;;41.42;17.53
64668;BME280;51077;42.716;23.344;2023-08-20T12:07:25;95488.41;;;41.49;17.02
64668;BME280;51077;42.716;23.344;2023-08-20T12:09:56;95474.75;;;41.33;17.50
64668;BME280;51077;42.716;23.344;2023-08-20T12:12:22;95481.22;;;41.34;17.68
64668;BME280;51077;42.716;23.344;2023-08-20T12:14:48;95489.16;;;41.56;17.35
64668;BME280;51077;42.716;23.344;2023-08-20T12:17:17;95484.84;;;41.51;17.22
64668;BME280;51077;42.716;23.344;2023-08-20T12:19:44;95484.81;;;41.49;17.48
64668;BME280;51077;42.716;23.344;2023-08-20T12:22:09;95474.75;;;41.29;17.45
64668;BME280;51077;42.716;23.344;2023-08-20T12:24:35;95476.19;;;41.12;17.58
64668;BME280;51077;42.716;23.344;2023-08-20T12:27:00;95476.19;;;41.24;17.70
64668;BME280;51077;42.716;23.344;2023-08-20T12:29:25;95474.75;;;41.25;17.69
64668;BME280;51077;42.716;23.344;2023-08-20T12:31:51;95474.75;;;41.15;17.73
64668;BME280;51077;42.716;23.344;2023-08-20T12:34:17;95480.47;;;40.97;17.73
64668;BME280;51077;42.716;23.344;2023-08-20T12:36:42;95460.31;;;41.01;17.85
64668;BME280;51077;42.716;23.344;2023-08-20T12:39:08;95469.72;;;41.19;17.82
64668;BME280;51077;42.716;23.344;2023-08-20T12:41:33;95467.53;;;41.30;17.91
64668;BME280;51077;42.716;23.344;2023-08-20T12:44:01;95470.44;;;41.06;17.85
64668;BME280;51077;42.716;23.344;2023-08-20T12:46:27;95466.78;;;41.36;17.25
64668;BME280;51077;42.716;23.344;2023-08-20T12:48:52;95462.47;;;41.31;17.68
64668;BME280;51077;42.716;23.344;2023-08-20T12:51:18;95463.19;;;41.31;17.89
64668;BME280;51077;42.716;23.344;2023-08-20T12:53:43;95464.66;;;41.30;17.59
64668;BME280;51077;42.716;23.344;2023-08-20T12:56:09;95466.81;;;41.32;17.45
64668;BME280;51077;42.716;23.344;2023-08-20T12:58:34;95473.25;;;40.89;17.55
64668;BME280;51077;42.716;23.344;2023-08-20T13:01:00;95461.03;;;40.85;17.70
64668;BME280;51077;42.716;23.344;2023-08-20T13:03:26;95463.19;;;40.80;18.07
64668;BME280;51077;42.716;23.344;2023-08-20T13:05:53;95456.66;;;40.65;18.38
64668;BME280;51077;42.716;23.344;2023-08-20T13:08:19;95457.34;;;40.58;18.26
64668;BME280;51077;42.716;23.344;2023-08-20T13:10:53;95455.13;;;40.40;18.28